createdAt,value
2022-09-11T00:00:47.157Z,22.75
2022-09-11T00:01:52.824Z,17.75
2022-09-11T00:02:58.480Z,18.44
2022-09-11T00:04:03.297Z,20.06
2022-09-11T00:05:11.728Z,19.94
2022-09-11T00:06:28.933Z,20.12
2022-09-11T00:07:25.879Z,19.37
2022-09-11T00:08:29.996Z,25.50
2022-09-11T00:09:33.942Z,21.62
2022-09-11T00:10:39.446Z,24.87
2022-09-11T00:11:55.353Z,16.93
2022-09-11T00:12:50.453Z,25.75
2022-09-11T00:13:55.131Z,21.31
2022-09-11T00:14:59.139Z,23.69
2022-09-11T00:16:05.970Z,20.37
2022-09-11T00:17:09.943Z,22.87
2022-09-11T00:18:17.992Z,21.87
2022-09-11T00:19:22.191Z,24.00
2022-09-11T00:20:26.423Z,24.37
2022-09-11T00:21:30.510Z,25.12
2022-09-11T00:22:34.779Z,24.12
2022-09-11T00:23:38.900Z,25.62
2022-09-11T00:24:43.057Z,19.31
2022-09-11T00:25:47.862Z,21.87
2022-09-11T00:26:51.978Z,22.56
2022-09-11T00:27:57.764Z,20.19
2022-09-11T00:29:01.721Z,17.75
2022-09-11T00:30:07.585Z,21.75
2022-09-11T00:31:14.636Z,21.13
2022-09-11T00:32:18.701Z,21.19
2022-09-11T00:33:22.730Z,26.19
2022-09-11T00:34:26.769Z,20.94
2022-09-11T00:35:30.840Z,15.56
2022-09-11T00:36:35.012Z,20.69
2022-09-11T00:37:38.997Z,22.75
2022-09-11T00:38:43.180Z,22.69
2022-09-11T00:39:48.443Z,22.69
2022-09-11T00:40:52.968Z,20.56
2022-09-11T00:41:57.029Z,21.81
2022-09-11T00:43:01.103Z,21.06
2022-09-11T00:44:14.427Z,25.50
2022-09-11T00:45:21.416Z,21.37
2022-09-11T00:46:40.459Z,22.75
2022-09-11T00:47:46.222Z,27.50
2022-09-11T00:48:50.612Z,17.06
2022-09-11T00:49:57.584Z,23.31
2022-09-11T00:51:04.502Z,22.56
2022-09-11T00:52:21.757Z,23.06
2022-09-11T00:53:28.756Z,26.69
2022-09-11T00:54:35.965Z,20.25
2022-09-11T00:55:42.927Z,22.37
2022-09-11T00:56:49.098Z,22.31
2022-09-11T00:57:58.654Z,19.62
2022-09-11T00:59:03.331Z,19.80
2022-09-11T01:00:08.860Z,27.06
2022-09-11T01:01:12.942Z,21.62
2022-09-11T01:02:26.824Z,20.25
2022-09-11T01:03:30.341Z,22.06
2022-09-11T01:04:34.297Z,21.25
2022-09-11T01:05:40.599Z,20.94
2022-09-11T01:06:44.890Z,24.12
2022-09-11T01:07:51.796Z,20.62
2022-09-11T01:09:01.928Z,22.87
2022-09-11T01:10:09.210Z,20.37
2022-09-11T01:11:21.708Z,17.94
2022-09-11T01:12:34.608Z,24.19
2022-09-11T01:14:00.949Z,21.94
2022-09-11T01:15:09.028Z,28.60
2022-09-11T01:16:22.234Z,23.53
2022-09-11T01:18:00.708Z,21.06
2022-09-11T01:19:39.128Z,24.20
2022-09-11T01:20:46.171Z,24.81
2022-09-11T01:22:07.861Z,27.25
2022-09-11T01:23:29.756Z,23.13
2022-09-11T01:25:09.469Z,25.44
2022-09-11T01:26:25.420Z,22.75
2022-09-11T01:27:50.268Z,24.75
2022-09-11T01:29:01.436Z,22.56
2022-09-11T01:30:14.064Z,15.06
2022-09-11T01:31:21.046Z,22.50
2022-09-11T01:32:30.705Z,22.31
2022-09-11T01:33:43.747Z,26.81
2022-09-11T01:35:05.906Z,25.62
2022-09-11T01:36:19.134Z,21.50
2022-09-11T01:37:40.986Z,23.25
2022-09-11T01:38:53.617Z,27.56
2022-09-11T01:40:00.564Z,25.94
2022-09-11T01:41:10.454Z,25.31
2022-09-11T01:42:17.406Z,20.00
2022-09-11T01:43:33.347Z,23.19
2022-09-11T01:44:40.299Z,19.00
2022-09-11T01:45:49.762Z,21.31
2022-09-11T01:46:54.844Z,22.37
2022-09-11T01:48:01.837Z,21.37
2022-09-11T01:49:11.336Z,19.87
2022-09-11T01:50:19.400Z,21.25
2022-09-11T01:51:26.349Z,18.19
2022-09-11T01:52:33.281Z,20.69
2022-09-11T01:53:40.397Z,18.25
2022-09-11T01:54:47.423Z,23.31
2022-09-11T01:55:56.882Z,23.62
2022-09-11T01:57:09.648Z,23.25
2022-09-11T01:58:19.590Z,19.75
2022-09-11T01:59:26.534Z,20.69
2022-09-11T02:00:33.612Z,25.62
2022-09-11T02:01:40.649Z,25.12
2022-09-11T02:02:47.608Z,21.06
2022-09-11T02:04:00.167Z,23.19
2022-09-11T02:05:13.013Z,21.94
2022-09-11T02:06:31.599Z,22.94
2022-09-11T02:07:38.165Z,25.44
2022-09-11T02:08:51.134Z,22.06
2022-09-11T02:10:01.065Z,20.00
2022-09-11T02:11:08.302Z,24.56
2022-09-11T02:12:15.246Z,21.06
2022-09-11T02:13:50.730Z,23.81
2022-09-11T02:14:55.717Z,18.69
2022-09-11T02:16:11.591Z,23.38
2022-09-11T02:17:40.978Z,22.31
2022-09-11T02:18:53.653Z,21.81
2022-09-11T02:20:00.264Z,20.93
2022-09-11T02:21:04.446Z,23.81
2022-09-11T02:22:08.707Z,22.50
2022-09-11T02:23:12.623Z,21.69
2022-09-11T02:24:17.491Z,25.31
2022-09-11T02:25:21.514Z,20.88
2022-09-11T02:26:28.272Z,26.00
2022-09-11T02:27:32.270Z,18.44
2022-09-11T02:28:36.531Z,21.62
2022-09-11T02:29:43.573Z,24.25
2022-09-11T02:30:47.743Z,23.44
2022-09-11T02:31:57.287Z,23.94
2022-09-11T02:33:01.256Z,26.31
2022-09-11T02:34:05.266Z,22.62
2022-09-11T02:35:10.181Z,22.37
2022-09-11T02:36:23.983Z,22.75
2022-09-11T02:37:50.457Z,20.44
2022-09-11T02:38:57.460Z,21.50
2022-09-11T02:40:22.547Z,21.06
2022-09-11T02:41:31.552Z,23.81
2022-09-11T02:42:48.665Z,22.69
2022-09-11T02:43:58.332Z,24.87
2022-09-11T02:45:05.339Z,26.60
2022-09-11T02:46:24.823Z,19.12
2022-09-11T02:47:49.384Z,25.31
2022-09-11T02:48:56.337Z,24.63
2022-09-11T02:50:28.543Z,21.87
2022-09-11T02:51:51.976Z,27.13
2022-09-11T02:53:04.713Z,23.44
2022-09-11T02:54:17.395Z,24.25
2022-09-11T02:55:27.078Z,25.19
2022-09-11T02:56:42.823Z,26.81
2022-09-11T02:57:49.853Z,26.44
2022-09-11T02:58:59.145Z,24.44
2022-09-11T03:00:06.666Z,26.19
2022-09-11T03:01:12.354Z,26.37
2022-09-11T03:02:18.125Z,23.44
2022-09-11T03:03:22.216Z,25.56
2022-09-11T03:04:26.594Z,22.62
2022-09-11T03:05:30.542Z,25.44
2022-09-11T03:07:00.026Z,24.94
2022-09-11T03:07:55.637Z,24.50
2022-09-11T03:09:05.638Z,24.69
2022-09-11T03:11:42.681Z,22.19
2022-09-11T03:12:22.762Z,24.00
2022-09-11T03:12:44.739Z,27.81
2022-09-11T03:14:05.523Z,21.06
2022-09-11T03:16:00.912Z,25.00
2022-09-11T03:17:15.131Z,23.44
2022-09-11T03:17:42.442Z,24.63
2022-09-11T03:20:21.168Z,24.75
2022-09-11T03:21:38.968Z,25.50
2022-09-11T03:22:52.831Z,26.81
2022-09-11T03:24:00.041Z,25.31
2022-09-11T03:25:12.721Z,24.87
2022-09-11T03:26:14.601Z,31.44
2022-09-11T03:27:22.702Z,25.50
2022-09-11T03:28:25.911Z,20.94
2022-09-11T03:29:31.388Z,25.00
2022-09-11T03:30:36.091Z,25.44
2022-09-11T03:32:40.718Z,26.06
2022-09-11T03:34:01.911Z,28.44
2022-09-11T03:34:27.198Z,24.37
2022-09-11T03:35:34.635Z,20.50
2022-09-11T03:36:53.959Z,23.25
2022-09-11T03:37:56.132Z,25.75
2022-09-11T03:39:04.939Z,19.00
2022-09-11T03:40:12.797Z,27.13
2022-09-11T03:41:32.524Z,24.63
2022-09-11T03:42:30.371Z,27.50
2022-09-11T03:43:34.402Z,20.88
2022-09-11T03:44:38.616Z,24.06
2022-09-11T03:45:42.848Z,25.88
2022-09-11T03:46:47.067Z,25.88
2022-09-11T03:47:50.999Z,23.00
2022-09-11T03:48:55.046Z,27.50
2022-09-11T03:49:59.264Z,22.31
2022-09-11T03:51:03.692Z,27.25
2022-09-11T03:52:07.834Z,24.63
2022-09-11T03:53:12.407Z,29.75
2022-09-11T03:54:16.468Z,22.44
2022-09-11T03:55:20.424Z,20.69
2022-09-11T03:56:24.863Z,23.33
2022-09-11T03:57:28.839Z,26.37
2022-09-11T03:58:36.889Z,23.87
2022-09-11T03:59:40.024Z,22.00
2022-09-11T04:00:44.312Z,26.25
2022-09-11T04:01:48.423Z,24.87
2022-09-11T04:02:52.551Z,22.75
2022-09-11T04:03:56.478Z,24.94
2022-09-11T04:05:00.412Z,24.19
2022-09-11T04:06:04.491Z,23.69
2022-09-11T04:07:08.408Z,23.75
2022-09-11T04:08:13.307Z,23.87
2022-09-11T04:09:17.400Z,28.44
2022-09-11T04:10:21.958Z,22.75
2022-09-11T04:11:25.954Z,25.12
2022-09-11T04:12:29.915Z,22.75
2022-09-11T04:13:37.078Z,19.62
2022-09-11T04:14:41.002Z,26.00
2022-09-11T04:15:44.933Z,26.87
2022-09-11T04:16:49.181Z,29.31
2022-09-11T04:17:53.194Z,22.37
2022-09-11T04:18:57.122Z,25.75
2022-09-11T04:20:01.106Z,22.19
2022-09-11T04:21:09.987Z,23.12
2022-09-11T04:22:14.225Z,24.56
2022-09-11T04:23:19.284Z,25.94
2022-09-11T04:24:23.330Z,25.44
2022-09-11T04:25:27.245Z,26.75
2022-09-11T04:26:33.119Z,22.50
2022-09-11T04:27:37.133Z,23.31
2022-09-11T04:28:41.405Z,24.56
2022-09-11T04:29:45.383Z,23.75
2022-09-11T04:30:49.409Z,24.06
2022-09-11T04:31:55.385Z,19.56
2022-09-11T04:32:59.386Z,22.13
2022-09-11T04:34:04.800Z,20.00
2022-09-11T04:35:08.998Z,21.44
2022-09-11T04:36:16.654Z,19.87
2022-09-11T04:37:20.657Z,21.50
2022-09-11T04:38:24.582Z,23.06
2022-09-11T04:39:28.768Z,21.94
2022-09-11T04:40:35.173Z,21.06
2022-09-11T04:41:39.318Z,16.56
2022-09-11T04:42:43.280Z,18.69
2022-09-11T04:43:47.220Z,21.44
2022-09-11T04:44:51.138Z,24.06
2022-09-11T04:46:03.462Z,19.19
2022-09-11T04:47:07.668Z,20.06
2022-09-11T04:48:11.663Z,22.06
2022-09-11T04:49:15.682Z,21.56
2022-09-11T04:50:21.140Z,22.62
2022-09-11T04:51:30.471Z,19.56
2022-09-11T04:52:34.596Z,23.25
2022-09-11T04:53:38.543Z,23.12
2022-09-11T04:54:42.520Z,20.31
2022-09-11T04:55:48.041Z,19.31
2022-09-11T04:56:53.501Z,18.81
2022-09-11T04:57:57.457Z,18.37
2022-09-11T04:59:04.458Z,18.50
2022-09-11T05:00:09.605Z,20.00
2022-09-11T05:01:16.044Z,20.75
2022-09-11T05:02:21.713Z,22.19
2022-09-11T05:03:27.354Z,23.06
2022-09-11T05:04:31.299Z,19.37
2022-09-11T05:05:35.465Z,19.19
2022-09-11T05:06:41.748Z,21.94
2022-09-11T05:07:48.485Z,20.50
2022-09-11T05:08:52.406Z,17.00
2022-09-11T05:09:56.380Z,12.19
2022-09-11T05:11:01.024Z,14.81
2022-09-11T05:12:05.204Z,15.81
2022-09-11T05:13:09.169Z,19.25
2022-09-11T05:14:14.680Z,20.47
2022-09-11T05:15:20.176Z,21.62
2022-09-11T05:16:27.467Z,19.12
2022-09-11T05:17:31.441Z,23.25
2022-09-11T05:18:39.523Z,18.06
2022-09-11T05:19:49.221Z,16.12
2022-09-11T05:22:04.507Z,14.44
2022-09-11T05:23:08.503Z,16.50
2022-09-11T05:24:12.497Z,15.25
2022-09-11T05:25:17.045Z,14.94
2022-09-11T05:26:24.289Z,17.75
2022-09-11T05:27:28.357Z,17.12
2022-09-11T05:28:33.208Z,18.00
2022-09-11T05:29:37.064Z,16.87
2022-09-11T05:30:40.980Z,18.44
2022-09-11T05:31:45.081Z,19.37
2022-09-11T05:32:56.208Z,18.00
2022-09-11T05:34:01.943Z,11.63
2022-09-11T05:35:06.438Z,17.94
2022-09-11T05:36:13.450Z,16.25
2022-09-11T05:37:17.370Z,19.31
2022-09-11T05:38:22.647Z,22.50
2022-09-11T05:39:26.559Z,23.69
2022-09-11T05:40:30.571Z,27.25
2022-09-11T05:41:37.242Z,26.81
2022-09-11T05:42:41.902Z,26.00
2022-09-11T05:43:47.835Z,24.19
2022-09-11T05:44:51.816Z,21.81
2022-09-11T05:46:00.159Z,19.81
2022-09-11T05:47:04.421Z,16.69
2022-09-11T05:48:14.993Z,12.75
2022-09-11T05:49:23.416Z,10.50
2022-09-11T05:50:28.970Z,8.31
2022-09-11T05:51:34.161Z,6.56
2022-09-11T05:52:38.089Z,7.75
2022-09-11T05:53:42.541Z,5.06
2022-09-11T05:54:46.602Z,4.56
2022-09-11T05:55:51.894Z,4.44
2022-09-11T05:56:57.359Z,5.56
2022-09-11T05:58:02.041Z,7.06
2022-09-11T05:59:13.184Z,5.56
2022-09-11T06:00:21.456Z,4.31
2022-09-11T06:01:27.857Z,6.12
2022-09-11T06:02:38.701Z,5.50
2022-09-11T06:03:43.108Z,4.62
2022-09-11T06:04:50.268Z,6.50
2022-09-11T06:08:46.245Z,7.56
2022-09-11T06:09:50.195Z,5.12
2022-09-11T06:10:54.293Z,5.19
2022-09-11T06:11:59.784Z,5.56
2022-09-11T06:13:05.224Z,5.06
2022-09-11T06:14:11.120Z,4.00
2022-09-11T06:15:42.956Z,4.69
2022-09-11T06:16:28.290Z,5.62
2022-09-11T06:17:32.274Z,4.25
2022-09-11T06:18:39.209Z,5.31
2022-09-11T06:19:50.410Z,6.19
2022-09-11T06:21:13.350Z,4.37
2022-09-11T06:22:18.776Z,5.50
2022-09-11T06:23:26.039Z,3.81
2022-09-11T06:24:50.225Z,4.37
2022-09-11T06:25:42.516Z,3.50
2022-09-11T06:26:47.967Z,3.06
2022-09-11T06:27:53.501Z,4.12
2022-09-11T06:28:59.149Z,5.87
2022-09-11T06:30:05.771Z,3.12
2022-09-11T06:31:12.362Z,5.44
2022-09-11T06:32:20.749Z,4.81
2022-09-11T06:33:29.367Z,4.31
2022-09-11T06:34:43.917Z,4.50
2022-09-11T06:36:04.908Z,4.62
2022-09-11T06:38:51.194Z,4.62
2022-09-11T06:39:58.343Z,4.94
2022-09-11T06:41:12.777Z,5.31
2022-09-11T06:42:51.866Z,4.44
2022-09-11T06:43:37.421Z,7.37
2022-09-11T06:44:58.137Z,7.25
2022-09-11T06:46:01.074Z,6.87
2022-09-11T06:47:06.268Z,3.81
2022-09-11T06:48:22.132Z,4.75
2022-09-11T06:49:32.707Z,5.44
2022-09-11T06:50:52.119Z,5.87
2022-09-11T06:51:43.769Z,4.56
2022-09-11T06:52:49.299Z,5.50
2022-09-11T06:53:58.401Z,3.81
2022-09-11T06:55:09.322Z,3.31
2022-09-11T06:56:14.324Z,5.50
2022-09-11T06:57:19.854Z,5.12
2022-09-11T06:58:23.798Z,3.87
2022-09-11T06:59:27.774Z,4.25
2022-09-11T07:00:35.311Z,5.12
2022-09-11T07:01:39.342Z,4.62
2022-09-11T07:02:43.394Z,3.31
2022-09-11T07:03:49.543Z,4.69
2022-09-11T07:04:53.460Z,5.19
2022-09-11T07:05:57.601Z,5.37
2022-09-11T07:07:01.776Z,4.87
2022-09-11T07:08:05.701Z,6.06
2022-09-11T07:09:11.791Z,6.69
2022-09-11T07:10:16.074Z,5.25
2022-09-11T07:11:20.411Z,4.81
2022-09-11T07:12:25.555Z,6.00
2022-09-11T07:13:29.463Z,4.81
2022-09-11T07:14:33.438Z,2.50
2022-09-11T07:15:52.477Z,6.44
2022-09-11T07:16:53.223Z,7.62
2022-09-11T07:17:53.893Z,4.06
2022-09-11T07:18:59.403Z,5.00
2022-09-11T07:20:05.161Z,5.75
2022-09-11T07:21:15.222Z,4.56
2022-09-11T07:22:17.258Z,4.87
2022-09-11T07:23:27.379Z,3.94
2022-09-11T07:24:31.428Z,5.50
2022-09-11T07:25:37.409Z,5.19
2022-09-11T07:26:41.542Z,7.00
2022-09-11T07:27:45.521Z,5.19
2022-09-11T07:28:49.843Z,4.69
2022-09-11T07:29:55.382Z,5.31
2022-09-11T07:31:11.312Z,5.69
2022-09-11T07:32:16.002Z,10.56
2022-09-11T07:33:22.078Z,5.19
2022-09-11T07:34:26.094Z,7.25
2022-09-11T07:35:31.628Z,7.00
2022-09-11T07:36:37.232Z,7.12
2022-09-11T07:37:50.208Z,5.81
2022-09-11T07:39:04.407Z,6.94
2022-09-11T07:40:13.431Z,8.31
2022-09-11T07:41:20.803Z,7.00
2022-09-11T07:42:25.149Z,7.50
2022-09-11T07:43:29.092Z,9.38
2022-09-11T07:44:33.291Z,6.25
2022-09-11T07:45:37.288Z,6.94
2022-09-11T07:46:41.361Z,7.81
2022-09-11T07:47:45.367Z,7.87
2022-09-11T07:48:49.377Z,9.81
2022-09-11T07:49:53.387Z,7.62
2022-09-11T07:51:02.641Z,8.50
2022-09-11T07:52:06.739Z,7.00
2022-09-11T07:53:11.964Z,16.37
2022-09-11T07:54:15.963Z,9.81
2022-09-11T07:55:19.955Z,7.75
2022-09-11T07:56:26.249Z,7.31
2022-09-11T07:57:31.682Z,7.00
2022-09-11T07:58:40.565Z,7.62
2022-09-11T07:59:44.504Z,7.37
2022-09-11T08:00:48.621Z,11.25
2022-09-11T08:01:54.226Z,11.44
2022-09-11T08:03:00.259Z,8.13
2022-09-11T08:04:06.950Z,7.87
2022-09-11T08:05:12.344Z,8.44
2022-09-11T08:06:22.408Z,8.06
2022-09-11T08:07:25.097Z,7.44
2022-09-11T08:08:30.261Z,7.75
2022-09-11T08:09:34.449Z,9.19
2022-09-11T08:10:38.890Z,10.25
2022-09-11T08:11:45.677Z,9.00
2022-09-11T08:12:49.604Z,10.50
2022-09-11T08:13:57.711Z,6.75
2022-09-11T08:15:01.662Z,11.25
2022-09-11T08:16:06.272Z,8.94
2022-09-11T08:17:10.191Z,5.12
2022-09-11T08:18:14.320Z,8.56
2022-09-11T08:19:20.665Z,6.19
2022-09-11T08:20:25.290Z,8.00
2022-09-11T08:21:29.892Z,8.06
2022-09-11T08:22:35.102Z,7.25
2022-09-11T08:23:41.060Z,6.69
2022-09-11T08:24:45.199Z,5.19
2022-09-11T08:25:49.149Z,8.06
2022-09-11T08:26:53.173Z,8.19
2022-09-11T08:27:57.241Z,9.94
2022-09-11T08:29:01.193Z,7.62
2022-09-11T08:30:05.765Z,10.19
2022-09-11T08:31:13.947Z,8.13
2022-09-11T08:32:17.863Z,8.56
2022-09-11T08:33:23.334Z,8.44
2022-09-11T08:34:28.884Z,6.06
2022-09-11T08:35:33.301Z,7.94
2022-09-11T08:36:38.989Z,9.44
2022-09-11T08:37:42.927Z,9.88
2022-09-11T08:38:47.474Z,9.81
2022-09-11T08:39:51.505Z,10.25
2022-09-11T08:40:58.714Z,8.44
2022-09-11T08:42:05.743Z,10.63
2022-09-11T08:43:12.660Z,7.12
2022-09-11T08:44:40.521Z,11.69
2022-09-11T08:45:44.996Z,9.69
2022-09-11T08:46:55.046Z,11.06
2022-09-11T08:48:01.742Z,10.19
2022-09-11T08:49:17.584Z,10.75
2022-09-11T08:50:31.107Z,16.06
2022-09-11T08:51:36.164Z,6.69
2022-09-11T08:52:40.814Z,14.38
2022-09-11T08:53:46.821Z,11.06
2022-09-11T08:54:52.330Z,14.25
2022-09-11T08:56:02.256Z,21.75
2022-09-11T08:57:28.735Z,11.19
2022-09-11T08:59:06.183Z,9.44
2022-09-11T09:00:25.059Z,10.50
2022-09-11T09:01:32.293Z,10.13
2022-09-11T09:02:55.840Z,10.94
2022-09-11T09:04:23.545Z,10.75
2022-09-11T09:05:33.027Z,15.88
2022-09-11T09:07:03.934Z,12.69
2022-09-11T09:08:10.875Z,13.69
2022-09-11T09:09:35.800Z,14.06
2022-09-11T09:10:55.949Z,12.25
2022-09-11T09:12:08.542Z,12.50
2022-09-11T09:13:37.934Z,11.56
2022-09-11T09:15:00.955Z,15.25
2022-09-11T09:16:10.451Z,13.56
2022-09-11T09:17:23.114Z,10.63
2022-09-11T09:18:30.093Z,18.06
2022-09-11T09:19:41.155Z,17.31
2022-09-11T09:20:53.902Z,15.50
2022-09-11T09:22:00.842Z,24.12
2022-09-11T09:23:09.338Z,14.94
2022-09-11T09:24:16.283Z,14.87
2022-09-11T09:25:22.766Z,15.25
2022-09-11T09:26:38.538Z,14.50
2022-09-11T09:27:51.477Z,19.94
2022-09-11T09:28:58.765Z,16.73
2022-09-11T09:30:05.822Z,18.12
2022-09-11T09:31:12.712Z,17.56
2022-09-11T09:32:22.310Z,17.31
2022-09-11T09:33:40.943Z,18.19
2022-09-11T09:34:46.471Z,19.56
2022-09-11T09:35:50.454Z,18.81
2022-09-11T09:37:01.972Z,16.94
2022-09-11T09:38:11.743Z,20.75
2022-09-11T09:39:17.800Z,22.75
2022-09-11T09:40:27.373Z,19.44
2022-09-11T09:41:46.435Z,18.37
2022-09-11T09:43:08.166Z,18.69
2022-09-11T09:44:35.236Z,26.87
2022-09-11T09:45:53.604Z,22.50
2022-09-11T09:46:57.774Z,22.25
2022-09-11T09:48:02.472Z,22.27
2022-09-11T09:49:11.700Z,22.62
2022-09-11T09:50:30.429Z,22.50
2022-09-11T09:51:32.355Z,24.44
2022-09-11T09:52:36.449Z,23.62
2022-09-11T09:53:46.094Z,27.69
2022-09-11T09:54:59.156Z,15.69
2022-09-11T09:56:06.809Z,24.37
2022-09-11T09:57:17.744Z,20.94
2022-09-11T09:58:26.385Z,21.06
2022-09-11T09:59:36.326Z,22.06
2022-09-11T10:00:43.327Z,23.38
2022-09-11T10:01:50.353Z,24.00
2022-09-11T10:02:58.682Z,26.50
2022-09-11T10:04:12.414Z,24.69
2022-09-11T10:05:25.368Z,19.87
2022-09-11T10:06:29.538Z,25.56
2022-09-11T10:07:34.047Z,25.44
2022-09-11T10:08:38.620Z,22.13
2022-09-11T10:09:53.290Z,23.06
2022-09-11T10:11:02.999Z,24.87
2022-09-11T10:12:13.300Z,21.75
2022-09-11T10:13:22.736Z,22.44
2022-09-11T10:14:50.433Z,24.06
2022-09-11T10:15:40.253Z,23.06
2022-09-11T10:16:47.369Z,21.69
2022-09-11T10:17:51.727Z,19.81
2022-09-11T10:18:57.032Z,25.19
2022-09-11T10:20:24.365Z,18.00
2022-09-11T10:21:30.143Z,21.62
2022-09-11T10:22:42.491Z,21.69
2022-09-11T10:23:59.503Z,20.88
2022-09-11T10:25:36.076Z,23.25
2022-09-11T10:26:59.487Z,15.88
2022-09-11T10:28:34.956Z,59.81
2022-09-11T10:29:35.304Z,24.25
2022-09-11T10:30:48.006Z,21.25
2022-09-11T10:32:08.319Z,23.00
2022-09-11T10:34:16.112Z,20.12
2022-09-11T10:34:38.934Z,21.62
2022-09-11T10:35:45.923Z,18.19
2022-09-11T10:37:01.412Z,23.12
2022-09-11T10:38:22.998Z,19.25
2022-09-11T10:39:49.944Z,19.19
2022-09-11T10:40:59.652Z,20.25
2022-09-11T10:41:55.497Z,26.25
2022-09-11T10:43:04.239Z,19.75
2022-09-11T10:44:15.889Z,17.62
2022-09-11T10:45:22.699Z,17.81
2022-09-11T10:46:45.234Z,17.00
2022-09-11T10:47:49.416Z,28.38
2022-09-11T10:48:59.411Z,15.44
2022-09-11T10:50:23.283Z,13.25
2022-09-11T10:51:31.817Z,17.87
2022-09-11T10:52:41.328Z,15.50
2022-09-11T10:54:18.767Z,16.62
2022-09-11T10:55:33.727Z,15.31
2022-09-11T10:56:42.532Z,12.56
2022-09-11T10:57:49.553Z,16.56
2022-09-11T10:59:06.850Z,18.12
2022-09-11T11:01:34.172Z,15.06
2022-09-11T11:02:41.520Z,17.56
2022-09-11T11:05:22.723Z,14.56
2022-09-11T11:06:35.641Z,15.19
2022-09-11T11:07:45.510Z,14.75
2022-09-11T11:09:22.504Z,15.94
2022-09-11T11:10:32.959Z,14.00
2022-09-11T11:12:02.170Z,16.81
2022-09-11T11:13:18.759Z,37.63
2022-09-11T11:14:36.253Z,13.38
2022-09-11T11:16:02.677Z,14.69
2022-09-11T11:17:40.005Z,15.94
2022-09-11T11:18:56.606Z,14.25
2022-09-11T11:20:09.297Z,17.75
2022-09-11T11:21:38.760Z,14.19
2022-09-11T11:22:53.852Z,10.75
2022-09-11T11:24:08.060Z,9.06
2022-09-11T11:25:21.847Z,16.87
2022-09-11T11:27:01.632Z,13.50
2022-09-11T11:28:29.723Z,18.56
2022-09-11T11:29:41.106Z,14.75
2022-09-11T11:31:13.186Z,12.94
2022-09-11T11:32:32.298Z,18.00
2022-09-11T11:33:57.048Z,17.62
2022-09-11T11:35:14.273Z,22.13
2022-09-11T11:36:40.017Z,22.75
2022-09-11T11:37:46.754Z,21.87
2022-09-11T11:39:20.248Z,14.94
2022-09-11T11:40:34.589Z,24.87
2022-09-11T11:41:44.580Z,24.44
2022-09-11T11:43:00.900Z,23.38
2022-09-11T11:44:07.892Z,18.25
2022-09-11T11:45:43.562Z,14.87
2022-09-11T11:47:01.301Z,14.69
2022-09-11T11:48:17.899Z,17.81
2022-09-11T11:50:04.420Z,18.50
2022-09-11T11:50:56.449Z,15.56
2022-09-11T11:52:15.167Z,15.88
2022-09-11T11:53:27.898Z,20.88
2022-09-11T11:54:40.430Z,15.88
2022-09-11T11:55:57.809Z,15.19
2022-09-11T11:57:07.394Z,15.25
2022-09-11T11:58:23.460Z,17.12
2022-09-11T12:00:05.600Z,16.06
2022-09-11T12:02:16.364Z,15.56
2022-09-11T12:04:15.003Z,16.50
2022-09-11T12:05:27.886Z,20.06
2022-09-11T12:06:34.983Z,20.44
2022-09-11T12:07:53.017Z,14.25
2022-09-11T12:09:21.284Z,15.75
2022-09-11T12:10:25.260Z,17.00
2022-09-11T12:11:25.660Z,21.19
2022-09-11T12:12:34.344Z,20.75
2022-09-11T12:13:50.063Z,19.12
2022-09-11T12:14:58.385Z,19.69
2022-09-11T12:16:11.544Z,23.56
2022-09-11T12:17:20.179Z,20.13
2022-09-11T12:18:25.714Z,20.75
2022-09-11T12:19:29.712Z,20.00
2022-09-11T12:22:13.178Z,18.69
2022-09-11T12:23:31.947Z,22.50
2022-09-11T12:24:54.049Z,20.81
2022-09-11T12:26:06.981Z,22.19
2022-09-11T12:27:33.371Z,19.00
2022-09-11T12:28:39.140Z,21.94
2022-09-11T12:29:48.793Z,17.06
2022-09-11T12:31:01.600Z,18.81
2022-09-11T12:32:17.439Z,19.50
2022-09-11T12:33:57.419Z,17.87
2022-09-11T12:35:02.511Z,20.69
2022-09-11T12:36:10.039Z,19.50
2022-09-11T12:37:27.293Z,19.75
2022-09-11T12:38:39.453Z,23.12
2022-09-11T12:39:52.302Z,20.06
2022-09-11T12:40:59.298Z,22.94
2022-09-11T12:42:23.698Z,20.50
2022-09-11T12:43:30.683Z,18.06
2022-09-11T12:44:54.183Z,18.00
2022-09-11T12:45:58.315Z,18.50
2022-09-11T12:47:13.249Z,22.25
2022-09-11T12:48:35.478Z,25.25
2022-09-11T12:49:47.502Z,18.75
2022-09-11T12:50:57.050Z,18.75
2022-09-11T12:52:02.755Z,20.19
2022-09-11T12:53:09.902Z,14.25
2022-09-11T12:54:34.785Z,20.44
2022-09-11T12:55:55.555Z,17.50
2022-09-11T12:57:04.391Z,16.06
2022-09-11T12:58:19.997Z,15.56
2022-09-11T12:59:34.237Z,16.69
2022-09-11T13:00:46.547Z,17.25
2022-09-11T13:01:52.301Z,18.06
2022-09-11T13:02:58.817Z,20.13
2022-09-11T13:04:09.012Z,18.87
2022-09-11T13:05:28.186Z,18.31
2022-09-11T13:06:50.326Z,19.19
2022-09-11T13:07:57.291Z,18.25
2022-09-11T13:09:05.478Z,15.94
2022-09-11T13:10:42.078Z,20.88
2022-09-11T13:11:49.091Z,17.69
2022-09-11T13:12:56.951Z,17.00
2022-09-11T13:14:19.538Z,18.81
2022-09-11T13:15:44.565Z,20.25
2022-09-11T13:17:41.049Z,17.06
2022-09-11T13:18:23.412Z,18.37
2022-09-11T13:19:18.245Z,17.62
2022-09-11T13:20:25.781Z,21.44
2022-09-11T13:21:34.023Z,16.44
2022-09-11T13:22:38.612Z,19.44
2022-09-11T13:23:44.297Z,16.62
2022-09-11T13:25:12.424Z,19.81
2022-09-11T13:26:45.167Z,20.88
2022-09-11T13:27:36.629Z,24.06
2022-09-11T13:28:49.736Z,20.80
2022-09-11T13:29:56.596Z,25.06
2022-09-11T13:31:06.222Z,25.19
2022-09-11T13:32:23.736Z,24.06
2022-09-11T13:33:33.440Z,27.13
2022-09-11T13:36:06.248Z,27.75
2022-09-11T13:37:23.279Z,23.69
2022-09-11T13:40:04.184Z,26.12
2022-09-11T13:41:17.059Z,26.31
2022-09-11T13:42:24.648Z,21.62
2022-09-11T13:43:35.742Z,25.62
2022-09-11T13:44:52.994Z,25.44
2022-09-11T13:46:17.894Z,33.00
2022-09-11T13:47:29.314Z,25.62
2022-09-11T13:48:32.172Z,30.73
2022-09-11T13:49:48.883Z,24.12
2022-09-11T13:50:51.072Z,23.44
2022-09-11T13:51:59.798Z,22.75
2022-09-11T13:53:08.703Z,28.62
2022-09-11T13:54:43.582Z,31.81
2022-09-11T13:57:25.565Z,29.44
2022-09-11T13:58:35.619Z,24.06
2022-09-11T14:00:11.470Z,25.88
2022-09-11T14:01:00.058Z,20.75
2022-09-11T14:02:23.518Z,19.75
2022-09-11T14:03:32.180Z,25.69
2022-09-11T14:05:57.696Z,26.19
2022-09-11T14:07:06.191Z,31.37
2022-09-11T14:08:33.817Z,26.81
2022-09-11T14:09:43.786Z,29.75
2022-09-11T14:10:52.437Z,24.06
2022-09-11T14:12:01.587Z,26.12
2022-09-11T14:13:20.350Z,23.69
2022-09-11T14:14:27.129Z,18.75
2022-09-11T14:15:34.229Z,21.94
2022-09-11T14:16:41.445Z,21.44
2022-09-11T14:17:47.104Z,18.87
2022-09-11T14:20:39.767Z,23.75
2022-09-11T14:21:46.661Z,23.50
2022-09-11T14:22:58.169Z,26.44
2022-09-11T14:24:03.098Z,26.06
2022-09-11T14:25:18.750Z,23.44
2022-09-11T14:26:34.995Z,28.75
2022-09-11T14:29:09.095Z,26.47
2022-09-11T14:30:36.906Z,27.13
2022-09-11T14:31:41.359Z,26.62
2022-09-11T14:32:45.614Z,26.44
2022-09-11T14:33:51.319Z,26.06
2022-09-11T14:35:06.911Z,23.75
2022-09-11T14:36:13.622Z,26.31
2022-09-11T14:37:19.309Z,23.38
2022-09-11T14:38:24.507Z,25.94
2022-09-11T14:40:00.236Z,23.25
2022-09-11T14:41:03.442Z,30.19
2022-09-11T14:42:18.987Z,26.75
2022-09-11T14:43:29.188Z,25.56
2022-09-11T14:44:53.262Z,24.50
2022-09-11T14:45:47.023Z,28.87
2022-09-11T14:46:54.855Z,28.75
2022-09-11T14:48:01.823Z,27.00
2022-09-11T14:49:05.823Z,24.37
2022-09-11T14:50:12.916Z,25.25
2022-09-11T14:51:17.157Z,25.50
2022-09-11T14:52:24.665Z,25.19
2022-09-11T14:53:31.574Z,20.00
2022-09-11T14:54:35.521Z,24.00
2022-09-11T14:55:39.632Z,22.50
2022-09-11T14:56:45.264Z,23.50
2022-09-11T14:57:49.404Z,23.75
2022-09-11T14:58:53.557Z,23.56
2022-09-11T14:59:57.645Z,23.06
2022-09-11T15:01:01.783Z,10.69
2022-09-11T15:02:08.939Z,22.25
2022-09-11T15:03:14.747Z,19.44
2022-09-11T15:04:23.026Z,18.81
2022-09-11T15:05:27.424Z,24.19
2022-09-11T15:06:34.987Z,20.19
2022-09-11T15:07:40.586Z,24.31
2022-09-11T15:08:44.674Z,21.31
2022-09-11T15:09:49.119Z,22.13
2022-09-11T15:10:53.702Z,19.50
2022-09-11T15:11:57.921Z,22.50
2022-09-11T15:13:01.956Z,22.13
2022-09-11T15:14:20.480Z,21.50
2022-09-11T15:15:11.974Z,23.75
2022-09-11T15:16:17.423Z,24.12
2022-09-11T15:17:21.846Z,20.69
2022-09-11T15:18:27.217Z,22.44
2022-09-11T15:19:32.055Z,21.44
2022-09-11T15:20:36.664Z,23.56
2022-09-11T15:21:41.178Z,19.56
2022-09-11T15:22:45.284Z,20.69
2022-09-11T15:23:49.346Z,19.06
2022-09-11T15:24:53.556Z,20.44